Time;durP1;ratioP1;P1;durP2;ratioP2;P2;SDS_P1;SDS_P2;PMS_P1;PMS_P2;Temp;Humidity;BMP_temperature;BMP_pressure;BME280_temperature;BME280_humidity;BME280_pressure;Samples;Min_cycle;Max_cycle;Signal;HPM_P1;HPM_P2
2022/07/06 00:02:00;;;;;;;;;;;15.20;99.90;;;;;;5030353;28;19921;-61
2022/07/06 00:04:27;;;;;;;;;;;15.20;99.90;;;;;;5026436;28;20336;-62
2022/07/06 00:06:54;;;;;;;;;;;15.20;99.90;;;;;;5031124;28;19928;-62
2022/07/06 00:09:21;;;;;;;;;;;15.10;99.90;;;;;;5031457;28;19921;-61
2022/07/06 00:11:47;;;;;;;;;;;15.20;99.90;;;;;;5025882;28;20056;-62
2022/07/06 00:14:14;;;;;;;;;;;15.10;99.90;;;;;;5031137;28;20381;-61
2022/07/06 00:16:40;;;;;;;;;;;15.00;99.90;;;;;;5031611;28;20385;-61
2022/07/06 00:19:07;;;;;;;;;;;14.90;99.90;;;;;;5030139;28;19925;-61
2022/07/06 00:21:34;;;;;;;;;;;14.90;99.90;;;;;;5029408;28;19929;-62
2022/07/06 00:24:00;;;;;;;;;;;15.00;99.90;;;;;;5031308;28;20354;-61
2022/07/06 00:26:27;;;;;;;;;;;15.00;99.90;;;;;;5031552;28;20386;-61
2022/07/06 00:28:54;;;;;;;;;;;14.90;99.90;;;;;;5039730;28;19921;-62
2022/07/06 00:31:21;;;;;;;;;;;15.00;99.90;;;;;;5045948;28;19933;-61
2022/07/06 00:33:47;;;;;;;;;;;14.90;99.90;;;;;;5029955;28;20016;-62
2022/07/06 00:36:14;;;;;;;;;;;15.00;99.90;;;;;;5028149;28;20328;-62
2022/07/06 00:38:41;;;;;;;;;;;15.00;99.90;;;;;;5028546;28;19959;-62
2022/07/06 00:41:07;;;;;;;;;;;15.00;99.90;;;;;;5049904;28;19925;-62
2022/07/06 00:43:51;;;;;;;;;;;15.10;99.90;;;;;;5033772;28;19984;-61
2022/07/06 00:46:18;;;;;;;;;;;15.10;99.90;;;;;;5028374;28;19950;-61
2022/07/06 00:48:45;;;;;;;;;;;15.20;99.90;;;;;;5035077;28;19921;-62
2022/07/06 00:51:12;;;;;;;;;;;15.10;99.90;;;;;;5034795;28;19921;-61
2022/07/06 00:53:39;;;;;;;;;;;15.20;99.90;;;;;;5050276;28;20377;-62
2022/07/06 00:56:06;;;;;;;;;;;15.20;99.90;;;;;;5028046;28;19944;-62
2022/07/06 00:58:33;;;;;;;;;;;15.20;99.90;;;;;;5033719;28;19921;-64
2022/07/06 01:01:00;;;;;;;;;;;15.30;99.90;;;;;;5034585;28;19936;-61
2022/07/06 01:03:26;;;;;;;;;;;15.30;99.90;;;;;;5033407;28;19921;-63
2022/07/06 01:05:53;;;;;;;;;;;15.20;99.90;;;;;;5034623;28;20305;-62
2022/07/06 01:08:20;;;;;;;;;;;15.30;99.90;;;;;;5035036;28;19921;-61
2022/07/06 01:10:47;;;;;;;;;;;15.40;99.90;;;;;;5034449;28;19921;-61
2022/07/06 01:13:15;;;;;;;;;;;15.30;99.90;;;;;;5033015;28;19990;-61
2022/07/06 01:15:41;;;;;;;;;;;15.30;99.90;;;;;;5034516;28;20701;-61
2022/07/06 01:18:09;;;;;;;;;;;15.30;99.90;;;;;;5033487;28;19924;-61
2022/07/06 01:20:36;;;;;;;;;;;15.30;99.90;;;;;;5030720;28;19925;-62
2022/07/06 01:23:03;;;;;;;;;;;15.20;99.90;;;;;;5025154;28;20381;-61
2022/07/06 01:25:30;;;;;;;;;;;15.20;99.90;;;;;;5050036;28;19921;-61
2022/07/06 01:27:57;;;;;;;;;;;15.20;99.90;;;;;;5033239;28;19921;-61
2022/07/06 01:30:24;;;;;;;;;;;15.20;99.90;;;;;;5026627;28;19925;-61
2022/07/06 01:32:50;;;;;;;;;;;15.30;99.90;;;;;;5034479;28;19921;-61
2022/07/06 01:35:17;;;;;;;;;;;15.30;99.90;;;;;;5033235;28;19921;-61
2022/07/06 01:37:44;;;;;;;;;;;15.30;99.90;;;;;;5032574;28;19921;-61
2022/07/06 01:40:11;;;;;;;;;;;15.20;99.90;;;;;;5033848;28;20159;-62
2022/07/06 01:42:39;;;;;;;;;;;15.20;99.90;;;;;;5033979;28;20270;-63
2022/07/06 01:45:06;;;;;;;;;;;15.20;99.90;;;;;;5032988;28;19921;-64
2022/07/06 01:47:34;;;;;;;;;;;15.10;99.90;;;;;;5032120;28;20403;-63
2022/07/06 01:50:02;;;;;;;;;;;15.10;99.90;;;;;;5040261;28;19921;-63
2022/07/06 01:52:31;;;;;;;;;;;15.10;99.90;;;;;;5032394;28;19921;-63
2022/07/06 01:55:00;;;;;;;;;;;15.10;99.90;;;;;;5032153;28;20476;-63
2022/07/06 01:57:29;;;;;;;;;;;15.10;99.90;;;;;;5032813;28;19921;-63
2022/07/06 01:59:55;;;;;;;;;;;15.10;99.90;;;;;;5033368;28;19921;-63
2022/07/06 02:02:22;;;;;;;;;;;15.10;99.90;;;;;;5032589;28;19921;-63
2022/07/06 02:04:49;;;;;;;;;;;15.10;99.90;;;;;;5042366;28;19931;-63
2022/07/06 02:07:15;;;;;;;;;;;15.10;99.90;;;;;;5032514;28;20385;-63
2022/07/06 02:09:42;;;;;;;;;;;15.20;99.90;;;;;;5049118;28;19922;-63
2022/07/06 02:12:09;;;;;;;;;;;15.20;99.90;;;;;;5033475;28;19932;-63
2022/07/06 02:14:36;;;;;;;;;;;15.20;99.90;;;;;;5030058;28;20305;-63
2022/07/06 02:17:02;;;;;;;;;;;15.10;99.90;;;;;;5016093;28;20541;-63
2022/07/06 02:19:29;;;;;;;;;;;15.10;99.90;;;;;;5032291;28;20385;-63
2022/07/06 02:21:56;;;;;;;;;;;15.00;99.90;;;;;;5030204;28;19921;-63
2022/07/06 02:24:22;;;;;;;;;;;15.00;99.90;;;;;;5048928;28;19925;-63
2022/07/06 02:26:50;;;;;;;;;;;15.00;99.90;;;;;;5031952;28;20023;-63
2022/07/06 02:29:16;;;;;;;;;;;15.10;99.90;;;;;;5048947;28;19960;-63
2022/07/06 02:31:44;;;;;;;;;;;15.20;99.90;;;;;;5028519;28;19921;-63
2022/07/06 02:34:10;;;;;;;;;;;15.10;99.90;;;;;;5048539;28;20019;-63
2022/07/06 02:36:37;;;;;;;;;;;15.10;99.90;;;;;;5033280;28;19921;-63
2022/07/06 02:39:04;;;;;;;;;;;14.90;99.90;;;;;;5031975;28;19975;-63
2022/07/06 02:41:31;;;;;;;;;;;14.80;99.90;;;;;;5068135;22;19931;-64
2022/07/06 02:43:58;;;;;;;;;;;14.70;99.90;;;;;;5053151;28;19980;-63
2022/07/06 02:46:25;;;;;;;;;;;14.60;99.90;;;;;;5068758;28;19920;-64
2022/07/06 02:48:51;;;;;;;;;;;14.50;99.90;;;;;;5056616;28;19927;-64
2022/07/06 02:51:18;;;;;;;;;;;14.50;99.90;;;;;;5066705;28;19920;-63
2022/07/06 02:53:46;;;;;;;;;;;14.50;99.90;;;;;;5068126;28;19927;-63
2022/07/06 02:56:12;;;;;;;;;;;14.50;99.90;;;;;;5068250;28;20374;-63
2022/07/06 02:58:40;;;;;;;;;;;14.50;99.90;;;;;;5051090;28;20011;-63
2022/07/06 03:01:07;;;;;;;;;;;14.40;99.90;;;;;;5070769;28;19925;-63
2022/07/06 03:03:34;;;;;;;;;;;14.40;99.90;;;;;;5071537;28;19920;-63
2022/07/06 03:06:02;;;;;;;;;;;14.50;99.90;;;;;;5071206;28;19920;-63
2022/07/06 03:08:31;;;;;;;;;;;14.50;99.90;;;;;;5054299;28;19928;-63
2022/07/06 03:10:59;;;;;;;;;;;14.50;99.90;;;;;;5054149;28;19929;-63
2022/07/06 03:13:26;;;;;;;;;;;14.50;99.90;;;;;;5054552;28;19963;-64
2022/07/06 03:15:54;;;;;;;;;;;14.60;99.90;;;;;;5070931;28;19951;-64
2022/07/06 03:18:21;;;;;;;;;;;14.60;99.90;;;;;;5068031;28;20015;-63
2022/07/06 03:20:48;;;;;;;;;;;14.60;99.90;;;;;;5070347;28;19973;-63
2022/07/06 03:23:17;;;;;;;;;;;14.80;99.90;;;;;;5070929;28;19920;-63
2022/07/06 03:25:44;;;;;;;;;;;14.70;99.90;;;;;;5070589;28;19927;-63
2022/07/06 03:28:11;;;;;;;;;;;14.80;99.90;;;;;;5061262;28;20350;-63
2022/07/06 03:30:38;;;;;;;;;;;14.70;99.90;;;;;;5071821;28;19956;-63
2022/07/06 03:33:05;;;;;;;;;;;14.80;99.90;;;;;;5069858;28;19939;-63
2022/07/06 03:35:32;;;;;;;;;;;14.70;99.90;;;;;;5058691;28;19927;-63
2022/07/06 03:38:02;;;;;;;;;;;14.80;99.90;;;;;;5037975;28;19959;-63
2022/07/06 03:40:30;;;;;;;;;;;14.90;99.90;;;;;;5053686;28;20023;-63
2022/07/06 03:42:57;;;;;;;;;;;14.90;99.90;;;;;;5069507;28;20003;-63
2022/07/06 03:45:25;;;;;;;;;;;14.90;99.90;;;;;;5058909;28;19928;-63
2022/07/06 03:47:52;;;;;;;;;;;14.90;99.90;;;;;;5071000;28;19920;-63
2022/07/06 03:50:20;;;;;;;;;;;14.90;99.90;;;;;;5069812;28;19920;-63
2022/07/06 03:52:47;;;;;;;;;;;14.90;99.90;;;;;;5067216;28;19971;-63
2022/07/06 03:55:14;;;;;;;;;;;15.00;99.90;;;;;;5067313;28;19920;-64
2022/07/06 03:57:46;;;;;;;;;;;15.10;99.90;;;;;;5067148;28;19929;-63
2022/07/06 04:00:16;;;;;;;;;;;15.10;99.90;;;;;;5066151;28;19921;-64
2022/07/06 04:02:50;;;;;;;;;;;15.10;99.90;;;;;;5050742;28;19920;-64
2022/07/06 04:05:22;;;;;;;;;;;15.10;99.90;;;;;;5067174;28;19974;-64
2022/07/06 04:07:51;;;;;;;;;;;15.00;99.90;;;;;;5067518;28;19960;-63
2022/07/06 04:10:19;;;;;;;;;;;14.90;99.90;;;;;;5053056;28;19921;-63
2022/07/06 04:12:47;;;;;;;;;;;14.90;99.90;;;;;;5039348;28;19920;-64
2022/07/06 04:15:15;;;;;;;;;;;14.80;99.90;;;;;;5072978;28;19920;-64
2022/07/06 04:17:51;;;;;;;;;;;14.80;99.90;;;;;;5075216;28;19927;-64
2022/07/06 04:20:22;;;;;;;;;;;14.70;99.90;;;;;;5070734;28;20288;-64
2022/07/06 04:22:49;;;;;;;;;;;14.80;99.90;;;;;;5071127;28;19925;-64
2022/07/06 04:25:16;;;;;;;;;;;14.80;99.90;;;;;;5073301;28;19927;-64
2022/07/06 04:27:44;;;;;;;;;;;14.70;99.90;;;;;;5057701;28;19966;-63
2022/07/06 04:30:12;;;;;;;;;;;14.80;99.90;;;;;;5073714;28;20448;-63
2022/07/06 04:32:41;;;;;;;;;;;14.90;99.90;;;;;;5057562;28;20363;-64
2022/07/06 04:35:08;;;;;;;;;;;14.90;99.90;;;;;;5073278;28;19978;-64
2022/07/06 04:37:35;;;;;;;;;;;15.00;99.90;;;;;;5053648;28;19943;-63
2022/07/06 04:40:02;;;;;;;;;;;15.00;99.90;;;;;;5053677;28;19984;-63
2022/07/06 04:42:29;;;;;;;;;;;15.10;99.90;;;;;;5068929;28;19943;-64
2022/07/06 04:44:56;;;;;;;;;;;15.10;99.90;;;;;;5070547;28;19935;-63
2022/07/06 04:47:23;;;;;;;;;;;15.10;99.90;;;;;;5056966;28;19920;-63
2022/07/06 04:49:50;;;;;;;;;;;15.10;99.90;;;;;;5075098;28;19930;-63
2022/07/06 04:52:17;;;;;;;;;;;15.20;99.90;;;;;;5055771;28;19949;-63
2022/07/06 04:54:44;;;;;;;;;;;15.20;99.90;;;;;;5073200;28;20011;-64
2022/07/06 04:57:12;;;;;;;;;;;15.30;99.90;;;;;;5056066;28;19925;-63
2022/07/06 04:59:40;;;;;;;;;;;15.40;99.90;;;;;;5056401;28;19920;-64
2022/07/06 05:02:07;;;;;;;;;;;15.50;99.90;;;;;;5054729;28;19921;-63
2022/07/06 05:04:34;;;;;;;;;;;15.60;99.90;;;;;;5056096;28;20364;-64
2022/07/06 05:07:01;;;;;;;;;;;15.70;99.90;;;;;;5054967;28;20024;-64
2022/07/06 05:09:28;;;;;;;;;;;15.80;99.90;;;;;;5055429;28;20423;-64
2022/07/06 05:11:54;;;;;;;;;;;16.00;99.90;;;;;;5072301;28;19921;-64
2022/07/06 05:14:21;;;;;;;;;;;16.00;99.90;;;;;;5074508;28;20361;-63
2022/07/06 05:16:49;;;;;;;;;;;16.00;99.90;;;;;;5072395;28;20343;-64
2022/07/06 05:19:16;;;;;;;;;;;16.10;99.90;;;;;;5072812;28;19924;-65
2022/07/06 05:21:44;;;;;;;;;;;16.20;99.90;;;;;;5072649;28;19920;-64
2022/07/06 05:24:12;;;;;;;;;;;16.30;99.90;;;;;;5056284;28;20287;-64
2022/07/06 05:26:39;;;;;;;;;;;16.40;99.90;;;;;;5072275;28;19924;-63
2022/07/06 05:29:05;;;;;;;;;;;16.40;99.90;;;;;;5074708;28;20034;-64
2022/07/06 05:31:33;;;;;;;;;;;16.50;99.90;;;;;;5056109;28;19920;-64
2022/07/06 05:33:59;;;;;;;;;;;16.70;99.90;;;;;;5074314;28;19925;-64
2022/07/06 05:36:27;;;;;;;;;;;16.80;99.90;;;;;;5061382;28;19924;-64
2022/07/06 05:38:54;;;;;;;;;;;17.00;99.90;;;;;;5072569;28;19928;-64
2022/07/06 05:41:21;;;;;;;;;;;17.30;99.90;;;;;;5072104;28;20361;-64
2022/07/06 05:43:54;;;;;;;;;;;17.50;99.90;;;;;;5054435;28;19947;-64
2022/07/06 05:46:21;;;;;;;;;;;17.80;99.90;;;;;;5056010;28;20024;-64
2022/07/06 05:51:34;;;;;;;;;;;18.10;99.90;;;;;;5071985;28;19920;-64
2022/07/06 05:54:00;;;;;;;;;;;18.10;99.90;;;;;;5054994;28;19954;-64
2022/07/06 05:56:27;;;;;;;;;;;18.20;99.90;;;;;;5055470;28;20307;-64
2022/07/06 05:58:54;;;;;;;;;;;18.10;99.90;;;;;;5055090;28;19920;-64
2022/07/06 06:01:21;;;;;;;;;;;18.00;99.90;;;;;;5066854;28;19921;-64
2022/07/06 06:03:59;;;;;;;;;;;18.10;99.90;;;;;;5068142;28;19974;-64
2022/07/06 06:06:26;;;;;;;;;;;18.20;99.90;;;;;;5071982;28;19936;-64
2022/07/06 06:08:53;;;;;;;;;;;18.30;99.90;;;;;;5073218;28;19925;-64
2022/07/06 06:11:20;;;;;;;;;;;18.30;99.90;;;;;;5072059;28;19925;-64
2022/07/06 06:13:46;;;;;;;;;;;18.30;99.90;;;;;;5068904;28;20405;-64
2022/07/06 06:16:15;;;;;;;;;;;18.30;99.90;;;;;;5069170;28;19927;-64
2022/07/06 06:18:42;;;;;;;;;;;18.00;99.90;;;;;;5071641;28;19928;-64
2022/07/06 06:21:10;;;;;;;;;;;18.00;99.90;;;;;;5072480;28;19927;-64
2022/07/06 06:23:36;;;;;;;;;;;17.90;99.90;;;;;;5071763;28;19920;-64
2022/07/06 06:26:03;;;;;;;;;;;17.80;99.90;;;;;;5055037;28;19927;-64
2022/07/06 06:28:30;;;;;;;;;;;17.80;99.90;;;;;;5072615;28;19921;-64
2022/07/06 06:30:57;;;;;;;;;;;18.00;99.90;;;;;;5072682;28;19928;-64
2022/07/06 06:33:23;;;;;;;;;;;18.20;99.90;;;;;;5073159;28;19927;-64
2022/07/06 06:35:51;;;;;;;;;;;18.40;99.90;;;;;;5072856;28;19924;-64
2022/07/06 06:38:19;;;;;;;;;;;18.70;99.90;;;;;;5048930;28;20274;-64
2022/07/06 06:40:46;;;;;;;;;;;18.70;99.90;;;;;;5070096;28;19929;-64
2022/07/06 06:43:13;;;;;;;;;;;18.70;99.90;;;;;;5071832;28;19926;-64
2022/07/06 06:45:53;;;;;;;;;;;18.70;99.90;;;;;;5062015;28;19920;-64
2022/07/06 06:48:20;;;;;;;;;;;19.00;99.90;;;;;;5072391;28;19930;-64
2022/07/06 06:50:47;;;;;;;;;;;19.10;99.90;;;;;;5070887;28;19947;-64
2022/07/06 06:53:13;;;;;;;;;;;19.20;99.90;;;;;;5071572;28;20270;-64
2022/07/06 06:55:40;;;;;;;;;;;19.30;99.90;;;;;;5072516;28;19920;-64
2022/07/06 06:58:07;;;;;;;;;;;19.40;99.90;;;;;;5072596;28;19920;-64
2022/07/06 07:00:33;;;;;;;;;;;19.60;99.90;;;;;;5072128;28;19927;-64
2022/07/06 07:03:00;;;;;;;;;;;19.80;99.90;;;;;;5071160;28;19928;-64
2022/07/06 07:05:27;;;;;;;;;;;20.10;99.90;;;;;;5071581;28;19921;-64
2022/07/06 07:07:56;;;;;;;;;;;20.30;99.90;;;;;;5072094;28;19924;-64
2022/07/06 07:10:30;;;;;;;;;;;20.20;99.90;;;;;;5054186;28;20440;-64
2022/07/06 07:12:56;;;;;;;;;;;20.20;99.90;;;;;;5069487;28;19921;-64
2022/07/06 07:15:23;;;;;;;;;;;20.10;99.90;;;;;;5072031;28;19920;-64
2022/07/06 07:17:50;;;;;;;;;;;20.20;99.90;;;;;;5071638;28;19938;-64
2022/07/06 07:20:17;;;;;;;;;;;20.40;99.90;;;;;;5069847;28;20385;-64
2022/07/06 07:22:43;;;;;;;;;;;20.50;99.90;;;;;;5054135;28;19936;-64
2022/07/06 07:25:10;;;;;;;;;;;20.50;99.90;;;;;;5054662;28;20306;-64
2022/07/06 07:27:37;;;;;;;;;;;20.60;99.90;;;;;;5072020;28;20385;-64
2022/07/06 07:30:04;;;;;;;;;;;20.70;99.90;;;;;;5071292;28;19943;-64
2022/07/06 07:32:30;;;;;;;;;;;20.70;99.90;;;;;;5070406;28;19924;-64
2022/07/06 07:34:57;;;;;;;;;;;20.80;99.90;;;;;;5070392;28;19920;-64
2022/07/06 07:37:24;;;;;;;;;;;20.80;99.90;;;;;;5054091;28;19920;-64
2022/07/06 07:39:51;;;;;;;;;;;20.80;99.90;;;;;;5062543;28;20011;-64
2022/07/06 07:42:18;;;;;;;;;;;20.90;99.90;;;;;;5037169;28;19921;-64
2022/07/06 07:44:45;;;;;;;;;;;21.10;99.90;;;;;;5070882;28;20278;-64
2022/07/06 07:47:11;;;;;;;;;;;21.30;99.90;;;;;;5071207;28;19920;-64
2022/07/06 07:49:38;;;;;;;;;;;21.70;99.90;;;;;;5052823;28;19925;-64
2022/07/06 07:52:05;;;;;;;;;;;21.90;99.90;;;;;;5071145;28;19928;-64
2022/07/06 07:54:31;;;;;;;;;;;21.90;99.90;;;;;;5071859;28;19927;-64
2022/07/06 07:56:58;;;;;;;;;;;22.00;99.90;;;;;;5071004;28;19928;-65
2022/07/06 07:59:25;;;;;;;;;;;21.80;99.90;;;;;;5066943;28;19928;-65
2022/07/06 08:01:52;;;;;;;;;;;21.70;99.90;;;;;;5069385;28;19970;-64
2022/07/06 08:04:19;;;;;;;;;;;21.60;99.90;;;;;;5070823;28;19924;-65
2022/07/06 08:06:46;;;;;;;;;;;21.40;99.90;;;;;;5071487;28;19974;-64
2022/07/06 08:09:13;;;;;;;;;;;21.40;99.90;;;;;;5070588;28;19927;-65
2022/07/06 08:11:39;;;;;;;;;;;21.20;99.90;;;;;;5070573;28;19924;-64
2022/07/06 08:14:06;;;;;;;;;;;21.10;99.90;;;;;;5071442;28;20288;-65
2022/07/06 08:16:33;;;;;;;;;;;21.20;99.90;;;;;;5071394;28;20396;-65
2022/07/06 08:19:00;;;;;;;;;;;21.20;99.90;;;;;;5071225;28;20461;-65
2022/07/06 08:21:32;;;;;;;;;;;21.20;99.90;;;;;;5070421;28;19920;-64
2022/07/06 08:24:00;;;;;;;;;;;21.20;99.90;;;;;;5071326;28;19935;-65
2022/07/06 08:26:27;;;;;;;;;;;21.20;99.90;;;;;;5053680;28;20292;-65
2022/07/06 08:28:54;;;;;;;;;;;21.50;99.90;;;;;;5071315;28;19920;-64
2022/07/06 08:31:21;;;;;;;;;;;21.90;99.90;;;;;;5069004;28;20369;-65
2022/07/06 08:34:09;;;;;;;;;;;22.50;99.90;;;;;;5053481;28;19944;-64
2022/07/06 08:36:36;;;;;;;;;;;22.90;99.90;;;;;;5071604;28;19920;-64
2022/07/06 08:39:03;;;;;;;;;;;22.60;99.90;;;;;;5070735;28;19943;-64
2022/07/06 08:45:06;;;;;;;;;;;22.40;99.90;;;;;;5006518;28;20404;-64
2022/07/06 08:47:35;;;;;;;;;;;23.10;99.90;;;;;;5009018;28;19925;-64
2022/07/06 08:50:02;;;;;;;;;;;23.30;99.90;;;;;;5003877;28;19929;-64
2022/07/06 08:52:29;;;;;;;;;;;23.10;99.90;;;;;;5017960;28;19944;-64
2022/07/06 08:54:56;;;;;;;;;;;23.00;99.90;;;;;;5028873;28;20385;-64
2022/07/06 08:57:24;;;;;;;;;;;22.70;99.90;;;;;;5024711;28;19975;-64
2022/07/06 08:59:51;;;;;;;;;;;22.60;99.90;;;;;;4988242;28;19928;-64
2022/07/06 09:02:19;;;;;;;;;;;22.60;99.90;;;;;;5024248;28;19960;-64
2022/07/06 09:04:46;;;;;;;;;;;22.40;99.90;;;;;;5032323;28;20471;-64
2022/07/06 09:07:13;;;;;;;;;;;22.30;99.90;;;;;;5032597;28;19925;-64
2022/07/06 09:10:01;;;;;;;;;;;22.30;99.90;;;;;;5024269;28;19921;-64
2022/07/06 09:12:28;;;;;;;;;;;22.30;99.90;;;;;;5027021;28;19921;-64
2022/07/06 09:14:56;;;;;;;;;;;22.00;99.90;;;;;;5032785;28;19921;-64
2022/07/06 09:17:28;;;;;;;;;;;21.80;99.90;;;;;;5029607;28;20456;-64
2022/07/06 09:19:56;;;;;;;;;;;21.70;99.90;;;;;;5024439;28;19921;-64
2022/07/06 09:22:32;;;;;;;;;;;21.60;99.90;;;;;;5034669;28;19991;-64
2022/07/06 09:25:06;;;;;;;;;;;21.60;99.90;;;;;;5034440;28;19979;-64
2022/07/06 09:27:39;;;;;;;;;;;21.70;99.90;;;;;;5026181;28;20492;-64
2022/07/06 09:30:06;;;;;;;;;;;21.80;99.90;;;;;;5018181;28;19930;-64
2022/07/06 09:32:38;;;;;;;;;;;21.90;99.90;;;;;;5034169;28;19982;-64
2022/07/06 09:35:04;;;;;;;;;;;21.90;99.90;;;;;;5026999;28;19925;-64
2022/07/06 09:37:31;;;;;;;;;;;21.90;99.90;;;;;;5029654;28;19928;-64
2022/07/06 09:39:58;;;;;;;;;;;21.80;99.90;;;;;;5033575;28;19921;-64
2022/07/06 09:42:26;;;;;;;;;;;21.70;99.90;;;;;;5033820;28;20427;-64
2022/07/06 09:44:53;;;;;;;;;;;21.50;99.90;;;;;;5023715;28;19922;-64
2022/07/06 09:47:19;;;;;;;;;;;21.50;99.90;;;;;;5033954;28;19927;-64
2022/07/06 09:49:47;;;;;;;;;;;21.50;99.90;;;;;;5016177;28;19947;-64
2022/07/06 09:52:14;;;;;;;;;;;21.70;99.90;;;;;;5029207;28;19928;-64
2022/07/06 09:54:41;;;;;;;;;;;21.90;99.90;;;;;;5024166;28;19978;-64
2022/07/06 09:57:08;;;;;;;;;;;22.80;99.90;;;;;;5033701;28;19967;-64
2022/07/06 09:59:36;;;;;;;;;;;23.50;99.90;;;;;;5032216;28;20016;-64
2022/07/06 10:02:04;;;;;;;;;;;23.70;99.90;;;;;;5024825;28;19925;-64
2022/07/06 10:04:31;;;;;;;;;;;23.60;99.90;;;;;;5016264;28;20380;-64
2022/07/06 10:06:59;;;;;;;;;;;23.40;99.90;;;;;;5033500;28;19921;-64
2022/07/06 10:09:26;;;;;;;;;;;23.10;99.90;;;;;;5026375;28;19921;-64
2022/07/06 10:11:57;;;;;;;;;;;22.90;99.90;;;;;;5022740;28;19921;-64
2022/07/06 10:14:27;;;;;;;;;;;22.60;99.90;;;;;;5030889;28;19921;-64
2022/07/06 10:16:58;;;;;;;;;;;22.50;99.90;;;;;;5006930;28;19921;-64
2022/07/06 10:19:25;;;;;;;;;;;22.30;99.90;;;;;;5008586;28;20394;-64
2022/07/06 10:21:52;;;;;;;;;;;22.30;99.90;;;;;;5012289;28;20436;-64
2022/07/06 10:24:20;;;;;;;;;;;22.20;99.90;;;;;;4996743;28;20287;-63
2022/07/06 10:26:47;;;;;;;;;;;22.10;99.90;;;;;;5011604;28;19948;-64
2022/07/06 10:29:14;;;;;;;;;;;22.10;99.90;;;;;;5026617;28;19925;-64
2022/07/06 10:31:43;;;;;;;;;;;22.20;99.90;;;;;;5032834;28;19929;-64
2022/07/06 10:34:11;;;;;;;;;;;22.40;99.90;;;;;;5029054;28;19921;-64
2022/07/06 10:36:39;;;;;;;;;;;22.80;99.90;;;;;;5023000;28;20285;-64
2022/07/06 10:41:52;;;;;;;;;;;23.90;99.90;;;;;;5012015;28;19932;-64
2022/07/06 10:44:23;;;;;;;;;;;24.50;99.90;;;;;;5013484;28;20098;-63
2022/07/06 10:46:59;;;;;;;;;;;24.80;99.90;;;;;;5021280;28;20293;-63
2022/07/06 10:49:26;;;;;;;;;;;24.60;99.90;;;;;;5012906;28;20329;-64
2022/07/06 10:52:17;;;;;;;;;;;24.30;99.90;;;;;;5016490;28;19928;-64
2022/07/06 10:54:43;;;;;;;;;;;23.90;99.90;;;;;;5024747;28;20294;-64
2022/07/06 10:57:14;;;;;;;;;;;23.90;99.90;;;;;;5032719;28;20003;-64
2022/07/06 10:59:59;;;;;;;;;;;24.40;99.90;;;;;;5026928;28;20004;-64
2022/07/06 11:02:26;;;;;;;;;;;25.10;99.90;;;;;;5024018;28;19921;-64
2022/07/06 11:04:53;;;;;;;;;;;25.70;99.90;;;;;;5021630;28;19929;-64
2022/07/06 11:07:20;;;;;;;;;;;25.40;99.90;;;;;;5012486;28;19921;-63
2022/07/06 11:09:56;;;;;;;;;;;25.00;99.90;;;;;;5011789;28;20040;-63
2022/07/06 11:12:23;;;;;;;;;;;24.80;99.90;;;;;;5022301;28;19925;-64
2022/07/06 11:14:51;;;;;;;;;;;24.50;99.90;;;;;;5031753;28;20385;-64
2022/07/06 11:17:18;;;;;;;;;;;24.60;99.90;;;;;;5031983;28;19925;-63
2022/07/06 11:19:58;;;;;;;;;;;24.30;99.90;;;;;;5021740;28;19951;-63
2022/07/06 11:22:26;;;;;;;;;;;23.80;99.90;;;;;;5023609;28;19921;-64
2022/07/06 11:24:53;;;;;;;;;;;23.30;99.90;;;;;;5032095;28;20138;-64
2022/07/06 11:27:22;;;;;;;;;;;23.00;99.90;;;;;;5028455;28;19932;-64
2022/07/06 11:29:48;;;;;;;;;;;22.90;99.90;;;;;;5004555;28;19968;-64
2022/07/06 11:32:22;;;;;;;;;;;23.10;99.90;;;;;;5031495;28;19920;-64
2022/07/06 11:34:49;;;;;;;;;;;23.20;99.90;;;;;;5032308;28;19928;-64
2022/07/06 11:37:17;;;;;;;;;;;23.80;99.90;;;;;;5029326;28;19921;-64
2022/07/06 11:39:45;;;;;;;;;;;24.40;99.90;;;;;;5023730;28;19925;-64
2022/07/06 11:42:13;;;;;;;;;;;25.00;99.90;;;;;;5015815;28;19929;-64
2022/07/06 11:44:40;;;;;;;;;;;25.70;99.90;;;;;;5032284;28;20385;-64
2022/07/06 11:47:07;;;;;;;;;;;25.40;99.90;;;;;;5028495;28;19963;-64
2022/07/06 11:49:35;;;;;;;;;;;24.80;99.50;;;;;;5023738;28;20064;-64
2022/07/06 11:52:06;;;;;;;;;;;24.10;99.90;;;;;;5031198;28;19921;-63
2022/07/06 11:54:33;;;;;;;;;;;23.60;99.90;;;;;;5032096;28;19932;-63
2022/07/06 11:57:00;;;;;;;;;;;23.40;99.90;;;;;;5024808;28;20293;-64
2022/07/06 11:59:30;;;;;;;;;;;23.40;99.90;;;;;;5027107;28;20344;-64
2022/07/06 12:01:58;;;;;;;;;;;23.30;99.90;;;;;;5031482;28;20369;-64
2022/07/06 12:04:25;;;;;;;;;;;23.40;99.90;;;;;;5027323;28;19930;-64
2022/07/06 12:06:52;;;;;;;;;;;23.50;99.90;;;;;;5021873;28;19975;-64
2022/07/06 12:09:20;;;;;;;;;;;23.90;99.90;;;;;;5031801;28;19932;-64
2022/07/06 12:11:47;;;;;;;;;;;24.50;99.90;;;;;;5031192;28;19944;-64
2022/07/06 12:14:15;;;;;;;;;;;25.10;99.90;;;;;;5021738;28;20437;-64
2022/07/06 12:16:42;;;;;;;;;;;25.30;98.40;;;;;;5028865;28;19924;-64
2022/07/06 12:19:11;;;;;;;;;;;25.10;98.10;;;;;;5031774;28;20290;-64
2022/07/06 12:21:45;;;;;;;;;;;25.20;99.00;;;;;;5022513;28;19921;-64
2022/07/06 12:24:18;;;;;;;;;;;25.40;99.60;;;;;;5017818;28;19932;-64
2022/07/06 12:26:45;;;;;;;;;;;25.60;97.80;;;;;;5031339;28;19929;-64
2022/07/06 12:29:15;;;;;;;;;;;25.50;97.30;;;;;;5031612;28;19921;-64
2022/07/06 12:31:43;;;;;;;;;;;25.50;96.40;;;;;;5020268;28;20290;-64
2022/07/06 12:34:14;;;;;;;;;;;25.50;96.70;;;;;;5031433;28;19921;-64
2022/07/06 12:36:45;;;;;;;;;;;25.70;96.40;;;;;;5035145;28;19959;-63
2022/07/06 12:39:13;;;;;;;;;;;25.90;97.10;;;;;;5032009;28;19921;-64
2022/07/06 12:41:44;;;;;;;;;;;26.10;97.90;;;;;;5023054;28;19925;-64
2022/07/06 12:44:11;;;;;;;;;;;26.00;99.00;;;;;;5009127;28;19928;-64
2022/07/06 12:46:41;;;;;;;;;;;25.90;96.90;;;;;;5001803;28;19925;-64
2022/07/06 12:49:11;;;;;;;;;;;25.70;96.00;;;;;;4995443;28;19928;-64
2022/07/06 12:51:57;;;;;;;;;;;25.80;96.80;;;;;;4983935;28;19921;-64
2022/07/06 12:54:24;;;;;;;;;;;25.60;94.30;;;;;;5006641;28;19928;-64
2022/07/06 12:57:00;;;;;;;;;;;25.80;96.10;;;;;;5015366;28;19921;-64
2022/07/06 12:59:27;;;;;;;;;;;25.40;94.20;;;;;;5015435;28;19921;-64
2022/07/06 13:01:56;;;;;;;;;;;24.90;95.80;;;;;;5008905;28;19928;-64
2022/07/06 13:04:28;;;;;;;;;;;24.90;95.40;;;;;;5015206;28;20052;-64
2022/07/06 13:06:54;;;;;;;;;;;24.60;94.80;;;;;;5015527;28;19925;-64
2022/07/06 13:09:21;;;;;;;;;;;24.50;94.40;;;;;;5015203;28;19937;-64
2022/07/06 13:11:48;;;;;;;;;;;24.60;94.80;;;;;;5011239;28;19922;-64
2022/07/06 13:14:16;;;;;;;;;;;25.10;93.90;;;;;;5014846;28;19925;-64
2022/07/06 13:16:43;;;;;;;;;;;25.40;94.50;;;;;;5013868;28;20428;-64
2022/07/06 13:19:10;;;;;;;;;;;25.50;93.70;;;;;;4988257;28;19922;-64
2022/07/06 13:21:37;;;;;;;;;;;25.70;95.60;;;;;;4987178;28;19922;-64
2022/07/06 13:24:04;;;;;;;;;;;26.10;96.10;;;;;;4993841;28;19952;-64
2022/07/06 13:26:34;;;;;;;;;;;26.30;95.80;;;;;;4972287;28;20407;-64
2022/07/06 13:29:01;;;;;;;;;;;26.30;95.00;;;;;;4990386;28;19928;-64
2022/07/06 13:31:27;;;;;;;;;;;26.20;94.80;;;;;;5007719;28;19984;-64
2022/07/06 13:33:54;;;;;;;;;;;26.50;96.10;;;;;;4984342;28;20272;-64
2022/07/06 13:36:22;;;;;;;;;;;26.60;96.20;;;;;;4993110;28;19921;-64
2022/07/06 13:38:49;;;;;;;;;;;26.70;94.50;;;;;;4984430;28;19922;-64
2022/07/06 13:41:15;;;;;;;;;;;26.60;95.50;;;;;;5010759;28;19925;-64
2022/07/06 13:43:42;;;;;;;;;;;26.50;92.90;;;;;;5004550;28;19929;-64
2022/07/06 13:46:10;;;;;;;;;;;26.10;94.40;;;;;;4984937;28;19997;-64
2022/07/06 13:48:37;;;;;;;;;;;25.50;94.90;;;;;;4998717;28;19929;-64
2022/07/06 13:51:04;;;;;;;;;;;25.40;95.00;;;;;;4998342;28;19944;-64
2022/07/06 13:53:31;;;;;;;;;;;25.70;95.50;;;;;;5014407;28;20020;-64
2022/07/06 13:55:58;;;;;;;;;;;25.80;95.40;;;;;;5008759;28;20024;-64
2022/07/06 13:58:25;;;;;;;;;;;25.70;94.50;;;;;;5014076;28;19932;-63
2022/07/06 14:00:52;;;;;;;;;;;25.20;92.60;;;;;;4996320;28;19921;-63
2022/07/06 14:03:18;;;;;;;;;;;24.80;92.70;;;;;;5014040;28;19921;-64
2022/07/06 14:05:45;;;;;;;;;;;24.40;93.30;;;;;;5011890;28;20330;-63
2022/07/06 14:08:12;;;;;;;;;;;24.40;95.50;;;;;;5014174;28;19928;-64
2022/07/06 14:10:39;;;;;;;;;;;24.50;94.90;;;;;;5013546;28;19926;-64
2022/07/06 14:13:05;;;;;;;;;;;24.40;95.00;;;;;;5005075;28;20301;-64
2022/07/06 14:15:33;;;;;;;;;;;24.40;95.60;;;;;;5013878;28;19925;-64
2022/07/06 14:18:00;;;;;;;;;;;24.60;94.70;;;;;;5013926;28;19921;-64
2022/07/06 14:20:26;;;;;;;;;;;25.30;95.10;;;;;;5006213;28;20449;-64
2022/07/06 14:22:53;;;;;;;;;;;25.80;94.40;;;;;;5005258;28;20326;-64
2022/07/06 14:25:20;;;;;;;;;;;26.30;94.40;;;;;;5013512;28;19928;-64
2022/07/06 14:27:47;;;;;;;;;;;26.30;93.10;;;;;;4995229;28;19981;-64
2022/07/06 14:30:13;;;;;;;;;;;26.40;93.80;;;;;;4993425;28;19922;-64